MSC Shanghai — A8HO3 — position and weather

sailwx.info

Track history (hours):
 
Tides and Currents Weather Stations Pressure Air Temp Water Temp Dewpoint Dewpoint Depression Visibility Wind Speed Wind Dir Waves Ship Positions

MSC Shanghai

Last reported at 2017-Oct-13 18:37 UTC. Time now 2017-Oct-18 02:31 UTC.
Position N 01°14' E 103°58'.

Length 274.7 m; beam 40 m; draft 14.5 m.

Type: Ship (hazmat cat A). MMSI: 636091328.

Date/timePositionNaut miles runAvg speedWind from/ knotsBaromVisibWave heightAir tempDewpointWater temp
2017-Oct-13 18:37N 01°14' E 103°58'0 2.9
2017-Oct-13 18:30N 01°14' E 103°58'2 3.1
2017-Oct-13 18:00N 01°13' E 103°56'2 3.2
2017-Oct-13 17:31N 01°13' E 103°55'2 3.0
2017-Oct-13 17:00N 01°12' E 103°53'2 3.0
2017-Oct-13 16:30N 01°11' E 103°52'1 2.8
2017-Oct-13 16:00N 01°12' E 103°50'1 2.4
2017-Oct-13 15:30N 01°12' E 103°49'1 1.8
2017-Oct-13 14:59N 01°12' E 103°48'3 2.6
2017-Oct-13 13:44N 01°15' E 103°47'0 0.0
2017-Oct-13 13:26N 01°15' E 103°47'0 0.0
2017-Oct-13 12:58N 01°15' E 103°47'0 0.0
2017-Oct-13 09:56N 01°15' E 103°47'16 6.1
2017-Oct-13 07:16N 01°15' E 104°03'615.8
2017-Oct-13 06:54N 01°14' E 103°58'615.6
2017-Oct-13 06:30N 01°11' E 103°52'510.6
2017-Oct-13 06:00N 01°14' E 103°47'2 3.3
2017-Oct-13 05:30N 01°15' E 103°47'0 0.0
2017-Oct-13 04:59N 01°15' E 103°47'0 0.0
2017-Oct-13 04:29N 01°15' E 103°47'0 0.0
2017-Oct-13 03:59N 01°15' E 103°47'0 0.0
2017-Oct-13 03:29N 01°15' E 103°47'0 0.0
2017-Oct-13 02:59N 01°15' E 103°47'0 0.0
2017-Oct-13 02:29N 01°15' E 103°47'3 4.7
2017-Oct-13 01:55N 01°15' E 103°44'1 2.5
2017-Oct-13 01:30N 01°15' E 103°43'1 2.9
2017-Oct-13 01:00N 01°14' E 103°42'1 3.0
2017-Oct-13 00:30N 01°13' E 103°41'2 3.1
2017-Oct-12 23:58N 01°12' E 103°39'1 2.2
2017-Oct-12 23:27N 01°12' E 103°38'919.2
2017-Oct-12 22:58N 01°15' E 103°47'0 0.0
2017-Oct-12 22:28N 01°15' E 103°47'0 0.0
2017-Oct-12 21:58N 01°15' E 103°47'0 0.0
2017-Oct-12 21:28N 01°15' E 103°47'0 0.0
2017-Oct-12 20:58N 01°15' E 103°47'0 0.0
2017-Oct-12 20:28N 01°15' E 103°47'0 0.0
2017-Oct-12 19:55N 01°15' E 103°47'0 0.0
2017-Oct-12 19:28N 01°15' E 103°47'0 0.0
2017-Oct-12 18:52N 01°15' E 103°47'0 0.0
2017-Oct-12 18:28N 01°15' E 103°47'0 0.0
2017-Oct-12 17:58N 01°15' E 103°47'0 0.0
2017-Oct-12 17:25N 01°15' E 103°47'0 0.0
2017-Oct-12 16:55N 01°15' E 103°47'0 0.0
2017-Oct-12 16:28N 01°15' E 103°47'0 0.0
2017-Oct-12 15:58N 01°15' E 103°47'0 0.0
2017-Oct-12 15:28N 01°15' E 103°47'0 0.0
2017-Oct-12 14:58N 01°15' E 103°47'0 0.4
2017-Oct-12 14:00N 01°15' E 103°47'4 7.6
2017-Oct-12 13:30N 01°14' E 103°43'510.7
2017-Oct-12 13:00N 01°12' E 103°38'3 6.2
2017-Oct-12 12:30N 01°12' E 103°35'4 8.1
2017-Oct-12 12:00N 01°11' E 103°31'4 8.1
2017-Oct-12 11:29N 01°11' E 103°27'5 9.0
2017-Oct-12 10:59N 01°13' E 103°23'5 9.6
2017-Oct-12 10:28N 01°16' E 103°19'  
2017-Oct-09 03:00N 05°36' E 086°00'20917.4 240 / 201009.110.8 28.521.828.6
2017-Oct-08 15:00N 05°30' E 082°30'15517.3 250 / 191009.210.8 28.024.828.4
2017-Oct-08 06:00N 05°36' E 079°54'20316.9 280 / 161009.4 5.4 32.023.028.1
2017-Oct-07 18:00N 07°00' E 076°48'20817.3 250 / 171008.710.8 27.525.128.7
2017-Oct-07 06:00N 08°24' E 073°36'21017.5 310 / 141009.710.8 32.021.528.8
2017-Oct-06 18:00N 09°24' E 070°12'19115.9 300 / 191009.710.8 27.524.428.5
2017-Oct-06 06:00N 10°18' E 067°06'17214.3 310 / 171011.010.8 32.022.428.5
2017-Oct-05 18:00N 11°06' E 064°18'17114.3 320 / 131011.410.8 27.523.428.5
2017-Oct-05 06:00N 11°54' E 061°30'17114.3 270 / 171012.310.8 28.521.328.3
2017-Oct-04 18:00N 12°42' E 058°42'18215.1 180 / 81011.7 1.1 24.022.827.0
2017-Oct-04 06:00N 13°30' E 055°42'   220 / 181012.810.8 27.620.426.6
Track history (hours):
 
Tides and Currents Weather Stations Pressure Air Temp Water Temp Dewpoint Dewpoint Depression Visibility Wind Speed Wind Dir Waves Ship Positions

MSC Shanghai

Last reported at 2017-Oct-13 18:37 UTC. Time now 2017-Oct-18 02:31 UTC.
Position N 01°14' E 103°58'.

Length 274.7 m; beam 40 m; draft 14.5 m.

Type: Ship (hazmat cat A). MMSI: 636091328.

Date/timePositionNaut miles runAvg speedWind from/ knotsBaromVisibWave heightAir tempDewpointWater temp
2017-Oct-13 18:37N 01°14' E 103°58'0 2.9
2017-Oct-13 18:30N 01°14' E 103°58'2 3.1
2017-Oct-13 18:00N 01°13' E 103°56'2 3.2
2017-Oct-13 17:31N 01°13' E 103°55'2 3.0
2017-Oct-13 17:00N 01°12' E 103°53'2 3.0
2017-Oct-13 16:30N 01°11' E 103°52'1 2.8
2017-Oct-13 16:00N 01°12' E 103°50'1 2.4
2017-Oct-13 15:30N 01°12' E 103°49'1 1.8
2017-Oct-13 14:59N 01°12' E 103°48'3 2.6
2017-Oct-13 13:44N 01°15' E 103°47'0 0.0
2017-Oct-13 13:26N 01°15' E 103°47'0 0.0
2017-Oct-13 12:58N 01°15' E 103°47'0 0.0
2017-Oct-13 09:56N 01°15' E 103°47'16 6.1
2017-Oct-13 07:16N 01°15' E 104°03'615.8
2017-Oct-13 06:54N 01°14' E 103°58'615.6
2017-Oct-13 06:30N 01°11' E 103°52'510.6
2017-Oct-13 06:00N 01°14' E 103°47'2 3.3
2017-Oct-13 05:30N 01°15' E 103°47'0 0.0
2017-Oct-13 04:59N 01°15' E 103°47'0 0.0
2017-Oct-13 04:29N 01°15' E 103°47'0 0.0
2017-Oct-13 03:59N 01°15' E 103°47'0 0.0
2017-Oct-13 03:29N 01°15' E 103°47'0 0.0
2017-Oct-13 02:59N 01°15' E 103°47'0 0.0
2017-Oct-13 02:29N 01°15' E 103°47'3 4.7
2017-Oct-13 01:55N 01°15' E 103°44'1 2.5
2017-Oct-13 01:30N 01°15' E 103°43'1 2.9
2017-Oct-13 01:00N 01°14' E 103°42'1 3.0
2017-Oct-13 00:30N 01°13' E 103°41'2 3.1
2017-Oct-12 23:58N 01°12' E 103°39'1 2.2
2017-Oct-12 23:27N 01°12' E 103°38'919.2
2017-Oct-12 22:58N 01°15' E 103°47'0 0.0
2017-Oct-12 22:28N 01°15' E 103°47'0 0.0
2017-Oct-12 21:58N 01°15' E 103°47'0 0.0
2017-Oct-12 21:28N 01°15' E 103°47'0 0.0
2017-Oct-12 20:58N 01°15' E 103°47'0 0.0
2017-Oct-12 20:28N 01°15' E 103°47'0 0.0
2017-Oct-12 19:55N 01°15' E 103°47'0 0.0
2017-Oct-12 19:28N 01°15' E 103°47'0 0.0
2017-Oct-12 18:52N 01°15' E 103°47'0 0.0
2017-Oct-12 18:28N 01°15' E 103°47'0 0.0
2017-Oct-12 17:58N 01°15' E 103°47'0 0.0
2017-Oct-12 17:25N 01°15' E 103°47'0 0.0
2017-Oct-12 16:55N 01°15' E 103°47'0 0.0
2017-Oct-12 16:28N 01°15' E 103°47'0 0.0
2017-Oct-12 15:58N 01°15' E 103°47'0 0.0
2017-Oct-12 15:28N 01°15' E 103°47'0 0.0
2017-Oct-12 14:58N 01°15' E 103°47'0 0.4
2017-Oct-12 14:00N 01°15' E 103°47'4 7.6
2017-Oct-12 13:30N 01°14' E 103°43'510.7
2017-Oct-12 13:00N 01°12' E 103°38'3 6.2
2017-Oct-12 12:30N 01°12' E 103°35'4 8.1
2017-Oct-12 12:00N 01°11' E 103°31'4 8.1
2017-Oct-12 11:29N 01°11' E 103°27'5 9.0
2017-Oct-12 10:59N 01°13' E 103°23'5 9.6
2017-Oct-12 10:28N 01°16' E 103°19'  
2017-Oct-09 03:00N 05°36' E 086°00'20917.4 240 / 201009.110.8 28.521.828.6
2017-Oct-08 15:00N 05°30' E 082°30'15517.3 250 / 191009.210.8 28.024.828.4
2017-Oct-08 06:00N 05°36' E 079°54'20316.9 280 / 161009.4 5.4 32.023.028.1
2017-Oct-07 18:00N 07°00' E 076°48'20817.3 250 / 171008.710.8 27.525.128.7
2017-Oct-07 06:00N 08°24' E 073°36'21017.5 310 / 141009.710.8 32.021.528.8
2017-Oct-06 18:00N 09°24' E 070°12'19115.9 300 / 191009.710.8 27.524.428.5
2017-Oct-06 06:00N 10°18' E 067°06'17214.3 310 / 171011.010.8 32.022.428.5
2017-Oct-05 18:00N 11°06' E 064°18'17114.3 320 / 131011.410.8 27.523.428.5
2017-Oct-05 06:00N 11°54' E 061°30'17114.3 270 / 171012.310.8 28.521.328.3
2017-Oct-04 18:00N 12°42' E 058°42'18215.1 180 / 81011.7 1.1 24.022.827.0
2017-Oct-04 06:00N 13°30' E 055°42'   220 / 181012.810.8 27.620.426.6

Dump ship's entire track history